Time,TemperatureF,DewpointF,PressureIn,WindDirection,WindDirectionDegrees,WindSpeedMPH,WindSpeedGustMPH,Humidity,HourlyPrecipIn,Conditions,Clouds,dailyrainin,SoftwareType,DateUTC
2013-02-26 00:02:00,16.3,10.0,29.55,West,270,0.0,0.0,76,0.00,,,0.00,LWC V2.10 B1813,2013-02-26 07:02:00,
2013-02-26 00:07:00,16.3,10.0,29.55,West,270,0.0,0.0,76,0.00,,,0.00,LWC V2.10 B1813,2013-02-26 07:07:00,
2013-02-26 00:12:00,16.3,10.0,29.54,West,270,0.0,0.0,76,0.00,,,0.00,LWC V2.10 B1813,2013-02-26 07:12:00,
2013-02-26 00:17:00,16.5,10.2,29.55,West,270,0.0,0.0,76,0.00,,,0.00,LWC V2.10 B1813,2013-02-26 07:17:00,
2013-02-26 00:22:00,16.7,10.4,29.55,West,270,0.0,0.0,76,0.00,,,0.00,LWC V2.10 B1813,2013-02-26 07:22:00,
2013-02-26 00:27:00,16.3,10.0,29.55,SW,225,0.0,0.0,76,0.00,,,0.00,LWC V2.10 B1813,2013-02-26 07:27:00,
2013-02-26 00:32:00,16.3,10.0,29.55,SW,225,0.0,0.0,76,0.00,,,0.00,LWC V2.10 B1813,2013-02-26 07:32:00,
2013-02-26 00:37:00,16.5,10.2,29.55,SW,225,0.0,0.0,76,0.00,,,0.00,LWC V2.10 B1813,2013-02-26 07:37:00,
2013-02-26 00:42:00,16.9,10.5,29.54,SW,225,0.0,0.0,76,0.00,,,0.00,LWC V2.10 B1813,2013-02-26 07:42:00,
2013-02-26 00:47:00,17.2,10.6,29.54,SW,225,0.0,0.0,75,0.00,,,0.00,LWC V2.10 B1813,2013-02-26 07:47:00,
2013-02-26 00:52:00,17.2,10.6,29.54,WSW,247,0.0,0.0,75,0.00,,,0.00,LWC V2.10 B1813,2013-02-26 07:52:00,
2013-02-26 00:57:00,17.4,10.8,29.54,WSW,247,0.0,0.0,75,0.00,,,0.00,LWC V2.10 B1813,2013-02-26 07:57:00,
2013-02-26 01:02:00,17.6,10.9,29.54,WSW,247,0.0,0.0,75,0.00,,,0.00,LWC V2.10 B1813,2013-02-26 08:02:00,
2013-02-26 01:07:00,17.8,11.1,29.54,WSW,247,0.0,0.0,75,0.00,,,0.00,LWC V2.10 B1813,2013-02-26 08:07:00,
2013-02-26 01:12:00,18.1,11.4,29.54,WSW,247,0.0,0.0,75,0.00,,,0.00,LWC V2.10 B1813,2013-02-26 08:12:00,
2013-02-26 01:17:00,18.3,11.6,29.53,WSW,247,0.0,0.0,75,0.00,,,0.00,LWC V2.10 B1813,2013-02-26 08:17:00,
2013-02-26 01:22:00,18.5,11.5,29.53,WSW,247,0.0,0.0,74,0.00,,,0.00,LWC V2.10 B1813,2013-02-26 08:22:00,
2013-02-26 01:27:00,19.2,12.2,29.53,WSW,247,0.0,0.0,74,0.00,,,0.00,LWC V2.10 B1813,2013-02-26 08:27:00,
2013-02-26 01:32:00,19.2,12.2,29.53,WSW,247,0.0,0.0,74,0.00,,,0.00,LWC V2.10 B1813,2013-02-26 08:32:00,
2013-02-26 01:37:00,19.6,12.5,29.53,WSW,247,0.0,0.0,74,0.00,,,0.00,LWC V2.10 B1813,2013-02-26 08:37:00,
2013-02-26 01:42:00,19.8,12.7,29.53,NNE,22,0.0,0.0,74,0.00,,,0.00,LWC V2.10 B1813,2013-02-26 08:42:00,
2013-02-26 01:47:00,19.9,12.6,29.54,SSE,157,3.6,3.6,73,0.00,,,0.00,LWC V2.10 B1813,2013-02-26 08:47:00,
2013-02-26 01:52:00,19.9,12.6,29.53,SSE,157,0.0,0.0,73,0.00,,,0.00,LWC V2.10 B1813,2013-02-26 08:52:00,
2013-02-26 01:57:00,19.9,12.6,29.53,SSE,157,0.0,0.0,73,0.00,,,0.00,LWC V2.10 B1813,2013-02-26 08:57:00,
2013-02-26 02:02:00,19.9,12.6,29.53,SSE,157,0.0,0.0,73,0.00,,,0.00,LWC V2.10 B1813,2013-02-26 09:02:00,
2013-02-26 02:07:00,19.6,12.2,29.53,SSE,157,0.0,0.0,73,0.00,,,0.00,LWC V2.10 B1813,2013-02-26 09:07:00,
2013-02-26 02:12:00,19.6,12.2,29.53,SSE,157,0.0,0.0,73,0.00,,,0.00,LWC V2.10 B1813,2013-02-26 09:12:00,
2013-02-26 02:17:00,19.4,12.0,29.53,SSE,157,0.0,0.0,73,0.00,,,0.00,LWC V2.10 B1813,2013-02-26 09:17:00,
2013-02-26 02:22:00,19.0,11.7,29.53,SSE,157,0.0,0.0,73,0.00,,,0.00,LWC V2.10 B1813,2013-02-26 09:22:00,
2013-02-26 02:27:00,18.9,11.5,29.53,SSE,157,0.0,0.0,73,0.00,,,0.00,LWC V2.10 B1813,2013-02-26 09:27:00,
2013-02-26 02:32:00,18.7,11.4,29.53,SSE,157,0.0,0.0,73,0.00,,,0.00,LWC V2.10 B1813,2013-02-26 09:32:00,
2013-02-26 02:37:00,19.0,11.8,29.53,SSE,157,0.0,0.0,74,0.00,,,0.00,LWC V2.10 B1813,2013-02-26 09:37:00,
2013-02-26 02:42:00,19.0,12.0,29.53,SSE,157,0.0,0.0,74,0.00,,,0.00,LWC V2.10 B1813,2013-02-26 09:42:00,
2013-02-26 02:47:00,19.0,12.0,29.53,SSE,157,0.0,0.0,74,0.00,,,0.00,LWC V2.10 B1813,2013-02-26 09:47:00,
2013-02-26 02:52:00,18.9,11.8,29.53,SSE,157,0.0,0.0,74,0.00,,,0.00,LWC V2.10 B1813,2013-02-26 09:52:00,
2013-02-26 02:57:00,18.9,11.8,29.53,SSE,157,0.0,0.0,74,0.00,,,0.00,LWC V2.10 B1813,2013-02-26 09:57:00,
2013-02-26 03:02:00,19.0,12.0,29.52,SSE,157,0.0,0.0,74,0.00,,,0.00,LWC V2.10 B1813,2013-02-26 10:02:00,
2013-02-26 03:07:00,19.2,12.2,29.52,SSE,157,0.0,0.0,74,0.00,,,0.00,LWC V2.10 B1813,2013-02-26 10:07:00,
2013-02-26 03:12:00,19.2,12.2,29.52,SSE,157,0.0,0.0,74,0.00,,,0.00,LWC V2.10 B1813,2013-02-26 10:12:00,
2013-02-26 03:17:00,19.4,12.3,29.52,SSE,157,0.0,0.0,74,0.00,,,0.00,LWC V2.10 B1813,2013-02-26 10:17:00,
2013-02-26 03:22:00,19.6,12.5,29.53,SSE,157,0.0,0.0,74,0.00,,,0.00,LWC V2.10 B1813,2013-02-26 10:22:00,
2013-02-26 03:27:00,19.6,12.8,29.53,SSE,157,0.0,0.0,75,0.00,,,0.00,LWC V2.10 B1813,2013-02-26 10:27:00,
2013-02-26 03:32:00,19.8,12.7,29.53,SSE,157,0.0,0.0,74,0.00,,,0.00,LWC V2.10 B1813,2013-02-26 10:32:00,
2013-02-26 03:37:00,20.1,13.1,29.53,SSE,157,0.0,0.0,74,0.00,,,0.00,LWC V2.10 B1813,2013-02-26 10:37:00,
2013-02-26 03:42:00,20.3,13.2,29.53,SSE,157,0.0,0.0,74,0.00,,,0.00,LWC V2.10 B1813,2013-02-26 10:42:00,
2013-02-26 03:47:00,20.3,13.2,29.52,SSE,157,0.0,0.0,74,0.00,,,0.00,LWC V2.10 B1813,2013-02-26 10:47:00,
2013-02-26 03:52:00,20.3,13.2,29.52,SSE,157,0.0,0.0,74,0.00,,,0.00,LWC V2.10 B1813,2013-02-26 10:52:00,
2013-02-26 03:57:00,20.3,13.2,29.52,SSE,157,0.0,0.0,74,0.00,,,0.00,LWC V2.10 B1813,2013-02-26 10:57:00,
2013-02-26 04:02:00,20.5,13.7,29.52,SSE,157,0.0,0.0,75,0.00,,,0.00,LWC V2.10 B1813,2013-02-26 11:02:00,
2013-02-26 04:07:00,20.5,13.7,29.53,SSE,157,0.0,0.0,75,0.00,,,0.00,LWC V2.10 B1813,2013-02-26 11:07:00,
2013-02-26 04:12:00,20.8,14.1,29.52,SSE,157,0.0,0.0,75,0.00,,,0.00,LWC V2.10 B1813,2013-02-26 11:12:00,
2013-02-26 04:17:00,21.0,14.3,29.52,SSE,157,0.0,0.0,75,0.00,,,0.00,LWC V2.10 B1813,2013-02-26 11:17:00,
2013-02-26 04:22:00,21.0,14.0,29.52,SSE,157,0.0,0.0,74,0.00,,,0.00,LWC V2.10 B1813,2013-02-26 11:22:00,
2013-02-26 04:27:00,21.4,14.3,29.52,SSE,157,0.0,0.0,74,0.00,,,0.00,LWC V2.10 B1813,2013-02-26 11:27:00,
2013-02-26 04:32:00,21.4,14.3,29.52,SSE,157,0.0,0.0,74,0.00,,,0.00,LWC V2.10 B1813,2013-02-26 11:32:00,
2013-02-26 04:37:00,21.6,15.0,29.53,SSE,157,0.0,0.0,75,0.00,,,0.00,LWC V2.10 B1813,2013-02-26 11:37:00,
2013-02-26 04:42:00,21.7,15.0,29.53,SSE,157,0.0,0.0,75,0.00,,,0.00,LWC V2.10 B1813,2013-02-26 11:42:00,
2013-02-26 04:47:00,21.9,15.2,29.53,SSE,157,0.0,0.0,75,0.00,,,0.00,LWC V2.10 B1813,2013-02-26 11:47:00,
2013-02-26 04:52:00,21.9,14.9,29.53,SSE,157,0.0,0.0,74,0.00,,,0.00,LWC V2.10 B1813,2013-02-26 11:52:00,
2013-02-26 04:57:00,22.1,15.0,29.53,SSE,157,0.0,0.0,74,0.00,,,0.00,LWC V2.10 B1813,2013-02-26 11:57:00,
2013-02-26 05:02:00,22.1,15.0,29.53,SSE,157,0.0,0.0,74,0.00,,,0.00,LWC V2.10 B1813,2013-02-26 12:02:00,
2013-02-26 05:07:00,22.1,15.0,29.53,SSE,157,0.0,0.0,74,0.00,,,0.00,LWC V2.10 B1813,2013-02-26 12:07:00,
2013-02-26 05:12:00,22.1,15.0,29.53,SSE,157,0.0,0.0,74,0.00,,,0.00,LWC V2.10 B1813,2013-02-26 12:12:00,
2013-02-26 05:17:00,22.3,15.2,29.53,SSE,157,0.0,0.0,74,0.00,,,0.00,LWC V2.10 B1813,2013-02-26 12:17:00,
2013-02-26 05:22:00,22.6,15.6,29.53,SSE,157,0.0,0.0,74,0.00,,,0.00,LWC V2.10 B1813,2013-02-26 12:22:00,
2013-02-26 05:27:00,22.6,15.6,29.53,SSE,157,0.0,0.0,74,0.00,,,0.00,LWC V2.10 B1813,2013-02-26 12:27:00,
2013-02-26 05:32:00,22.8,15.8,29.54,South,180,0.0,0.0,74,0.00,,,0.00,LWC V2.10 B1813,2013-02-26 12:32:00,
2013-02-26 05:37:00,23.0,15.9,29.54,South,180,0.0,0.0,74,0.00,,,0.00,LWC V2.10 B1813,2013-02-26 12:37:00,
2013-02-26 05:42:00,23.2,16.1,29.54,South,180,0.0,0.0,74,0.00,,,0.00,LWC V2.10 B1813,2013-02-26 12:42:00,
2013-02-26 05:47:00,23.4,16.3,29.54,South,180,0.0,0.0,74,0.00,,,0.00,LWC V2.10 B1813,2013-02-26 12:47:00,
2013-02-26 05:52:00,23.9,16.8,29.54,South,180,0.0,0.0,74,0.00,,,0.00,LWC V2.10 B1813,2013-02-26 12:52:00,
2013-02-26 05:57:00,23.9,16.8,29.54,South,180,0.0,0.0,74,0.00,,,0.00,LWC V2.10 B1813,2013-02-26 12:57:00,
2013-02-26 06:02:00,24.1,17.0,29.54,South,180,0.0,0.0,74,0.00,,,0.00,LWC V2.10 B1813,2013-02-26 13:02:00,
2013-02-26 06:07:00,24.4,17.0,29.54,South,180,0.0,0.0,73,0.00,,,0.00,LWC V2.10 B1813,2013-02-26 13:07:00,
2013-02-26 06:12:00,24.6,17.1,29.55,South,180,0.0,0.0,73,0.00,,,0.00,LWC V2.10 B1813,2013-02-26 13:12:00,
2013-02-26 06:17:00,24.6,17.1,29.55,South,180,0.0,0.0,73,0.00,,,0.00,LWC V2.10 B1813,2013-02-26 13:17:00,
2013-02-26 06:22:00,25.0,17.5,29.55,South,180,0.0,0.0,73,0.00,,,0.00,LWC V2.10 B1813,2013-02-26 13:22:00,
2013-02-26 06:27:00,25.2,17.7,29.55,South,180,0.0,0.0,73,0.00,,,0.00,LWC V2.10 B1813,2013-02-26 13:27:00,
2013-02-26 06:33:00,25.3,17.8,29.56,South,180,0.0,0.0,73,0.00,,,0.00,LWC V2.10 B1813,2013-02-26 13:33:00,
2013-02-26 06:38:00,25.3,17.8,29.56,SSW,202,0.0,0.0,73,0.00,,,0.00,LWC V2.10 B1813,2013-02-26 13:38:00,
2013-02-26 06:43:00,25.5,18.0,29.56,SW,225,0.0,0.0,73,0.00,,,0.00,LWC V2.10 B1813,2013-02-26 13:43:00,
2013-02-26 06:48:00,25.5,18.3,29.56,SW,225,0.0,0.0,74,0.00,,,0.00,LWC V2.10 B1813,2013-02-26 13:48:00,
2013-02-26 06:53:00,25.3,18.5,29.56,SW,225,0.0,0.0,75,0.00,,,0.00,LWC V2.10 B1813,2013-02-26 13:53:00,
2013-02-26 06:58:00,25.5,18.6,29.56,SW,225,0.0,0.0,75,0.00,,,0.00,LWC V2.10 B1813,2013-02-26 13:58:00,
2013-02-26 07:03:00,25.5,19.0,29.57,SW,225,0.0,0.0,76,0.00,,,0.00,LWC V2.10 B1813,2013-02-26 14:03:00,
2013-02-26 07:08:00,25.5,19.3,29.57,SW,225,0.0,0.0,77,0.00,,,0.00,LWC V2.10 B1813,2013-02-26 14:08:00,
2013-02-26 07:13:00,25.5,19.3,29.57,SW,225,0.0,0.0,77,0.00,,,0.00,LWC V2.10 B1813,2013-02-26 14:13:00,
2013-02-26 07:18:00,25.5,19.6,29.57,SW,225,0.0,0.0,78,0.00,,,0.00,LWC V2.10 B1813,2013-02-26 14:18:00,
2013-02-26 07:23:00,25.5,19.6,29.57,SW,225,0.0,0.0,78,0.00,,,0.00,LWC V2.10 B1813,2013-02-26 14:23:00,
2013-02-26 07:28:00,25.5,19.6,29.57,SW,225,0.0,0.0,78,0.00,,,0.00,LWC V2.10 B1813,2013-02-26 14:28:00,
2013-02-26 07:33:00,25.7,20.1,29.56,SW,225,0.0,0.0,79,0.00,,,0.00,LWC V2.10 B1813,2013-02-26 14:33:00,
2013-02-26 07:38:00,25.7,20.1,29.56,SW,225,0.0,0.0,79,0.00,,,0.00,LWC V2.10 B1813,2013-02-26 14:38:00,
2013-02-26 07:44:00,26.1,20.4,29.57,SW,225,0.0,0.0,79,0.00,,,0.00,LWC V2.10 B1813,2013-02-26 14:44:00,
2013-02-26 07:49:00,26.2,20.6,29.57,SW,225,0.0,0.0,79,0.00,,,0.00,LWC V2.10 B1813,2013-02-26 14:49:00,
2013-02-26 07:54:00,26.4,20.7,29.57,SW,225,0.0,0.0,79,0.00,,,0.00,LWC V2.10 B1813,2013-02-26 14:54:00,
2013-02-26 07:59:00,26.8,21.4,29.57,SW,225,0.0,0.0,80,0.00,,,0.00,LWC V2.10 B1813,2013-02-26 14:59:00,
2013-02-26 08:04:00,27.0,21.6,29.57,SW,225,0.0,0.0,80,0.00,,,0.00,LWC V2.10 B1813,2013-02-26 15:04:00,
2013-02-26 08:09:00,27.1,21.7,29.57,SW,225,0.0,0.0,80,0.00,,,0.00,LWC V2.10 B1813,2013-02-26 15:09:00,
2013-02-26 08:14:00,27.1,21.7,29.57,SW,225,0.0,0.0,80,0.00,,,0.00,LWC V2.10 B1813,2013-02-26 15:14:00,
2013-02-26 08:19:00,27.3,21.9,29.58,SW,225,0.0,0.0,80,0.00,,,0.00,LWC V2.10 B1813,2013-02-26 15:19:00,
2013-02-26 08:24:00,27.7,22.3,29.57,SW,225,0.0,0.0,80,0.00,,,0.00,LWC V2.10 B1813,2013-02-26 15:24:00,
2013-02-26 08:29:00,28.0,22.6,29.57,SW,225,0.0,0.0,80,0.00,,,0.00,LWC V2.10 B1813,2013-02-26 15:29:00,
2013-02-26 08:34:00,28.2,22.8,29.57,SW,225,0.0,0.0,80,0.00,,,0.00,LWC V2.10 B1813,2013-02-26 15:34:00,
2013-02-26 08:39:00,28.6,23.2,29.57,SW,225,0.0,0.0,80,0.00,,,0.00,LWC V2.10 B1813,2013-02-26 15:39:00,
2013-02-26 08:44:00,28.8,23.0,29.58,SW,225,0.0,0.0,79,0.00,,,0.00,LWC V2.10 B1813,2013-02-26 15:44:00,
2013-02-26 08:49:00,28.9,23.2,29.58,SW,225,0.0,0.0,79,0.00,,,0.00,LWC V2.10 B1813,2013-02-26 15:49:00,
2013-02-26 08:54:00,29.1,23.4,29.58,SW,225,0.0,0.0,79,0.00,,,0.00,LWC V2.10 B1813,2013-02-26 15:54:00,
2013-02-26 08:59:00,29.5,23.8,29.58,SW,225,0.0,0.0,79,0.00,,,0.00,LWC V2.10 B1813,2013-02-26 15:59:00,
2013-02-26 09:04:00,29.7,23.9,29.58,SW,225,0.0,0.0,79,0.00,,,0.00,LWC V2.10 B1813,2013-02-26 16:04:00,
2013-02-26 09:09:00,29.8,23.8,29.58,SW,225,0.0,0.0,78,0.00,,,0.00,LWC V2.10 B1813,2013-02-26 16:09:00,
2013-02-26 09:14:00,30.0,24.0,29.58,SW,225,0.0,0.0,78,0.00,,,0.00,LWC V2.10 B1813,2013-02-26 16:14:00,
2013-02-26 09:19:00,30.0,24.0,29.58,SW,225,0.0,0.0,78,0.00,,,0.00,LWC V2.10 B1813,2013-02-26 16:19:00,
2013-02-26 09:24:00,30.4,24.3,29.58,SW,225,0.0,0.0,78,0.00,,,0.00,LWC V2.10 B1813,2013-02-26 16:24:00,
2013-02-26 09:29:00,30.6,24.5,29.58,SW,225,0.0,0.0,78,0.00,,,0.00,LWC V2.10 B1813,2013-02-26 16:29:00,
2013-02-26 09:34:00,30.7,24.7,29.58,SW,225,0.0,0.0,78,0.00,,,0.00,LWC V2.10 B1813,2013-02-26 16:34:00,
2013-02-26 09:39:00,30.7,24.7,29.58,SW,225,0.0,0.0,78,0.00,,,0.00,LWC V2.10 B1813,2013-02-26 16:39:00,
2013-02-26 09:44:00,31.1,25.1,29.58,SW,225,0.0,0.0,78,0.00,,,0.00,LWC V2.10 B1813,2013-02-26 16:44:00,
2013-02-26 09:49:00,31.5,25.4,29.58,SW,225,0.0,0.0,78,0.00,,,0.00,LWC V2.10 B1813,2013-02-26 16:49:00,
2013-02-26 09:54:00,31.6,25.6,29.58,SW,225,0.0,0.0,78,0.00,,,0.00,LWC V2.10 B1813,2013-02-26 16:54:00,
2013-02-26 09:59:00,32.0,25.6,29.58,SW,225,0.0,0.0,77,0.00,,,0.00,LWC V2.10 B1813,2013-02-26 16:59:00,
2013-02-26 10:04:00,31.8,25.4,29.58,South,180,0.0,0.0,77,0.00,,,0.00,LWC V2.10 B1813,2013-02-26 17:04:00,
2013-02-26 10:09:00,31.8,25.4,29.58,South,180,0.0,0.0,77,0.00,,,0.00,LWC V2.10 B1813,2013-02-26 17:09:00,
2013-02-26 10:14:00,32.0,25.3,29.58,SE,135,0.0,0.0,76,0.00,,,0.00,LWC V2.10 B1813,2013-02-26 17:14:00,
2013-02-26 10:19:00,31.8,25.1,29.58,SE,135,0.0,0.0,76,0.00,,,0.00,LWC V2.10 B1813,2013-02-26 17:19:00,
2013-02-26 10:24:00,32.0,25.0,29.58,SE,135,0.0,0.0,75,0.00,,,0.00,LWC V2.10 B1813,2013-02-26 17:24:00,
2013-02-26 10:29:00,32.5,25.8,29.58,SE,135,0.0,0.0,76,0.00,,,0.00,LWC V2.10 B1813,2013-02-26 17:29:00,
2013-02-26 10:34:00,32.7,25.6,29.58,SE,135,0.0,0.0,75,0.00,,,0.00,LWC V2.10 B1813,2013-02-26 17:34:00,
2013-02-26 10:39:00,32.7,25.3,29.58,ESE,112,0.0,0.0,74,0.00,,,0.00,LWC V2.10 B1813,2013-02-26 17:39:00,
2013-02-26 10:44:00,32.4,25.0,29.58,ESE,112,0.0,0.0,74,0.00,,,0.00,LWC V2.10 B1813,2013-02-26 17:44:00,
2013-02-26 10:49:00,32.2,24.8,29.58,SE,135,0.0,0.0,74,0.00,,,0.00,LWC V2.10 B1813,2013-02-26 17:49:00,
2013-02-26 10:54:00,32.4,25.0,29.58,SE,135,0.0,0.0,74,0.00,,,0.00,LWC V2.10 B1813,2013-02-26 17:54:00,
2013-02-26 10:59:00,32.2,24.8,29.57,SE,135,0.0,0.0,74,0.00,,,0.00,LWC V2.10 B1813,2013-02-26 17:59:00,
2013-02-26 11:04:00,32.4,25.0,29.58,SE,135,0.0,0.0,74,0.00,,,0.00,LWC V2.10 B1813,2013-02-26 18:04:00,
2013-02-26 11:09:00,32.7,25.3,29.58,SE,135,0.0,0.0,74,0.00,,,0.00,LWC V2.10 B1813,2013-02-26 18:09:00,
2013-02-26 11:14:00,33.4,25.6,29.58,SE,135,0.0,0.0,73,0.00,,,0.00,LWC V2.10 B1813,2013-02-26 18:14:00,
2013-02-26 11:19:00,33.6,25.8,29.58,SE,135,0.0,0.0,73,0.00,,,0.00,LWC V2.10 B1813,2013-02-26 18:19:00,
2013-02-26 11:24:00,33.6,25.5,29.58,SE,135,0.0,0.0,72,0.00,,,0.00,LWC V2.10 B1813,2013-02-26 18:24:00,
2013-02-26 11:29:00,33.6,25.1,29.58,SE,135,0.0,0.0,71,0.00,,,0.00,LWC V2.10 B1813,2013-02-26 18:29:00,
2013-02-26 11:34:00,34.3,25.8,29.58,SE,135,0.0,0.0,71,0.00,,,0.00,LWC V2.10 B1813,2013-02-26 18:34:00,
2013-02-26 11:39:00,35.8,26.2,29.57,ESE,112,0.0,0.0,70,0.00,,,0.00,LWC V2.10 B1813,2013-02-26 18:39:00,
2013-02-26 11:44:00,36.3,27.1,29.57,SE,135,0.0,0.0,69,0.00,,,0.00,LWC V2.10 B1813,2013-02-26 18:44:00,
2013-02-26 11:49:00,37.2,26.5,29.57,ENE,67,0.0,0.0,65,0.02,,,0.02,LWC V2.10 B1813,2013-02-26 18:49:00,
2013-02-26 11:54:00,36.5,26.2,29.56,SE,135,0.0,0.0,66,0.02,,,0.02,LWC V2.10 B1813,2013-02-26 18:54:00,
2013-02-26 11:59:00,37.2,26.9,29.56,SE,135,0.0,0.0,66,0.04,,,0.04,LWC V2.10 B1813,2013-02-26 18:59:00,
2013-02-26 12:04:00,37.8,27.4,29.56,SE,135,0.0,0.0,66,0.04,,,0.04,LWC V2.10 B1813,2013-02-26 19:04:00,
2013-02-26 12:09:00,37.8,25.9,29.56,NNE,22,0.0,0.0,63,0.06,,,0.06,LWC V2.10 B1813,2013-02-26 19:09:00,
2013-02-26 12:14:00,36.7,26.0,29.56,SSE,157,0.0,0.0,65,0.06,,,0.06,LWC V2.10 B1813,2013-02-26 19:14:00,
2013-02-26 12:19:00,35.8,25.5,29.56,SSE,157,0.0,0.0,66,0.06,,,0.06,LWC V2.10 B1813,2013-02-26 19:19:00,
2013-02-26 12:24:00,35.6,25.0,29.56,NNE,22,3.4,3.4,65,0.08,,,0.08,LWC V2.10 B1813,2013-02-26 19:24:00,
2013-02-26 12:29:00,34.0,24.1,29.56,East,90,0.0,0.0,67,0.08,,,0.08,LWC V2.10 B1813,2013-02-26 19:29:00,
2013-02-26 12:34:00,34.3,24.8,29.56,SE,135,0.0,0.0,68,0.08,,,0.08,LWC V2.10 B1813,2013-02-26 19:34:00,
2013-02-26 12:39:00,34.3,24.8,29.56,SE,135,0.0,0.0,68,0.08,,,0.08,LWC V2.10 B1813,2013-02-26 19:39:00,
2013-02-26 12:44:00,34.3,24.8,29.56,ESE,112,0.0,0.0,68,0.06,,,0.08,LWC V2.10 B1813,2013-02-26 19:44:00,
2013-02-26 12:49:00,34.5,25.0,29.56,SSE,157,0.0,0.0,68,0.06,,,0.08,LWC V2.10 B1813,2013-02-26 19:49:00,
2013-02-26 12:54:00,35.2,25.3,29.56,SE,135,0.0,0.0,67,0.06,,,0.08,LWC V2.10 B1813,2013-02-26 19:54:00,
2013-02-26 12:59:00,35.4,25.5,29.56,SE,135,0.0,0.0,67,0.04,,,0.08,LWC V2.10 B1813,2013-02-26 19:59:00,
2013-02-26 13:04:00,36.1,26.2,29.56,SE,135,0.0,0.0,67,0.02,,,0.08,LWC V2.10 B1813,2013-02-26 20:04:00,
2013-02-26 13:09:00,36.3,25.7,29.56,SE,135,0.0,0.0,65,0.02,,,0.08,LWC V2.10 B1813,2013-02-26 20:09:00,
2013-02-26 13:14:00,36.3,26.0,29.57,SE,135,0.0,0.0,66,0.02,,,0.08,LWC V2.10 B1813,2013-02-26 20:14:00,
2013-02-26 13:19:00,36.3,25.7,29.57,SE,135,0.0,0.0,65,0.02,,,0.08,LWC V2.10 B1813,2013-02-26 20:19:00,
2013-02-26 13:24:00,36.1,25.5,29.57,SE,135,0.0,4.0,65,0.02,,,0.10,LWC V2.10 B1813,2013-02-26 20:24:00,
2013-02-26 13:29:00,36.3,25.7,29.57,ENE,67,0.0,0.0,65,0.02,,,0.10,LWC V2.10 B1813,2013-02-26 20:29:00,
2013-02-26 13:34:00,36.3,25.7,29.57,SE,135,0.0,0.0,65,0.02,,,0.10,LWC V2.10 B1813,2013-02-26 20:34:00,
2013-02-26 13:39:00,36.3,25.7,29.57,SSE,157,0.0,0.0,65,0.02,,,0.10,LWC V2.10 B1813,2013-02-26 20:39:00,
2013-02-26 13:44:00,36.5,25.8,29.57,SE,135,0.0,0.0,65,0.02,,,0.10,LWC V2.10 B1813,2013-02-26 20:44:00,
2013-02-26 13:49:00,36.5,25.5,29.57,SSE,157,0.0,0.0,64,0.02,,,0.10,LWC V2.10 B1813,2013-02-26 20:49:00,
2013-02-26 13:54:00,37.0,26.0,29.58,SSE,157,0.0,0.0,64,0.02,,,0.10,LWC V2.10 B1813,2013-02-26 20:54:00,
2013-02-26 13:59:00,37.0,25.6,29.58,SSE,157,0.0,0.0,63,0.02,,,0.10,LWC V2.10 B1813,2013-02-26 20:59:00,
2013-02-26 14:04:00,36.5,25.5,29.58,SSE,157,0.0,0.0,64,0.02,,,0.10,LWC V2.10 B1813,2013-02-26 21:04:00,
2013-02-26 14:09:00,35.8,24.8,29.58,SSE,157,0.0,2.5,64,0.02,,,0.10,LWC V2.10 B1813,2013-02-26 21:09:00,
2013-02-26 14:14:00,35.4,24.4,29.58,SSE,157,0.0,0.0,64,0.02,,,0.10,LWC V2.10 B1813,2013-02-26 21:14:00,
2013-02-26 14:19:00,35.4,24.4,29.58,SSE,157,0.0,0.0,64,0.02,,,0.10,LWC V2.10 B1813,2013-02-26 21:19:00,
2013-02-26 14:24:00,36.0,24.9,29.58,South,180,2.2,2.2,64,0.00,,,0.10,LWC V2.10 B1813,2013-02-26 21:24:00,
2013-02-26 14:29:00,35.4,24.1,29.58,South,180,6.5,6.5,63,0.00,,,0.10,LWC V2.10 B1813,2013-02-26 21:29:00,
2013-02-26 14:34:00,35.4,23.7,29.58,WSW,247,0.0,0.0,62,0.00,,,0.10,LWC V2.10 B1813,2013-02-26 21:34:00,
2013-02-26 14:39:00,36.0,24.2,29.58,SW,225,0.0,0.0,62,0.00,,,0.10,LWC V2.10 B1813,2013-02-26 21:39:00,
2013-02-26 14:44:00,36.1,24.0,29.59,SSW,202,0.0,0.0,61,0.00,,,0.10,LWC V2.10 B1813,2013-02-26 21:44:00,
2013-02-26 14:49:00,36.1,24.0,29.59,ESE,112,0.0,0.0,61,0.00,,,0.10,LWC V2.10 B1813,2013-02-26 21:49:00,
2013-02-26 14:54:00,36.1,24.7,29.60,SW,225,0.0,5.4,63,0.00,,,0.10,LWC V2.10 B1813,2013-02-26 21:54:00,
2013-02-26 14:59:00,36.0,24.6,29.60,WNW,292,0.0,0.0,63,0.00,,,0.10,LWC V2.10 B1813,2013-02-26 21:59:00,
2013-02-26 15:04:00,35.8,24.4,29.60,NNW,337,0.0,0.0,63,0.00,,,0.10,LWC V2.10 B1813,2013-02-26 22:04:00,
2013-02-26 15:09:00,35.1,23.4,29.60,NNE,22,0.0,15.0,62,0.00,,,0.10,LWC V2.10 B1813,2013-02-26 22:09:00,
2013-02-26 15:14:00,34.9,23.5,29.60,WSW,247,0.0,0.0,63,0.00,,,0.10,LWC V2.10 B1813,2013-02-26 22:14:00,
2013-02-26 15:19:00,34.9,22.5,29.61,NNE,22,3.4,3.4,60,0.00,,,0.10,LWC V2.10 B1813,2013-02-26 22:19:00,
2013-02-26 15:24:00,35.4,19.5,29.61,NE,45,5.1,6.5,52,0.00,,,0.10,LWC V2.10 B1813,2013-02-26 22:24:00,
2013-02-26 15:29:00,35.4,19.1,29.61,NW,315,0.0,0.0,51,0.00,,,0.10,LWC V2.10 B1813,2013-02-26 22:29:00,
2013-02-26 15:34:00,35.8,19.9,29.62,NW,315,0.0,0.0,52,0.00,,,0.10,LWC V2.10 B1813,2013-02-26 22:34:00,
2013-02-26 15:39:00,35.8,18.5,29.62,NNE,22,5.6,5.6,49,0.00,,,0.10,LWC V2.10 B1813,2013-02-26 22:39:00,
2013-02-26 15:44:00,35.8,18.0,29.62,NNE,22,2.0,2.0,48,0.00,,,0.10,LWC V2.10 B1813,2013-02-26 22:44:00,
2013-02-26 15:49:00,35.4,18.2,29.62,WSW,247,0.0,0.0,49,0.00,,,0.10,LWC V2.10 B1813,2013-02-26 22:49:00,
2013-02-26 15:54:00,35.8,17.5,29.62,North,0,0.0,0.0,47,0.00,,,0.10,LWC V2.10 B1813,2013-02-26 22:54:00,
2013-02-26 15:59:00,35.4,18.2,29.63,NE,45,0.0,0.0,49,0.00,,,0.10,LWC V2.10 B1813,2013-02-26 22:59:00,
2013-02-26 16:04:00,35.4,17.1,29.63,NE,45,5.1,5.1,47,0.00,,,0.10,LWC V2.10 B1813,2013-02-26 23:04:00,
2013-02-26 16:09:00,35.4,17.1,29.63,NNE,22,5.1,5.1,47,0.00,,,0.10,LWC V2.10 B1813,2013-02-26 23:09:00,
2013-02-26 16:14:00,35.2,17.5,29.63,North,0,1.3,1.3,48,0.00,,,0.10,LWC V2.10 B1813,2013-02-26 23:14:00,
2013-02-26 16:19:00,35.2,16.9,29.63,NNE,22,4.5,4.5,47,0.00,,,0.10,LWC V2.10 B1813,2013-02-26 23:19:00,
2013-02-26 16:24:00,35.2,17.5,29.63,ENE,67,0.0,0.0,48,0.00,,,0.10,LWC V2.10 B1813,2013-02-26 23:24:00,
2013-02-26 16:29:00,35.2,16.9,29.64,North,0,0.0,0.0,47,0.00,,,0.10,LWC V2.10 B1813,2013-02-26 23:29:00,
2013-02-26 16:34:00,35.2,16.9,29.64,North,0,0.0,0.0,47,0.00,,,0.10,LWC V2.10 B1813,2013-02-26 23:34:00,
2013-02-26 16:39:00,34.9,16.1,29.64,North,0,0.0,4.7,46,0.00,,,0.10,LWC V2.10 B1813,2013-02-26 23:39:00,
2013-02-26 16:44:00,34.9,16.6,29.64,North,0,7.4,7.4,47,0.00,,,0.10,LWC V2.10 B1813,2013-02-26 23:44:00,
2013-02-26 16:49:00,34.5,15.9,29.64,NNE,22,3.1,3.1,46,0.00,,,0.10,LWC V2.10 B1813,2013-02-26 23:49:00,
2013-02-26 16:54:00,34.5,16.2,29.65,North,0,7.4,7.4,47,0.00,,,0.10,LWC V2.10 B1813,2013-02-26 23:54:00,
2013-02-26 16:59:00,34.3,16.1,29.65,NE,45,6.0,6.0,47,0.00,,,0.10,LWC V2.10 B1813,2013-02-26 23:59:00,
2013-02-26 17:04:00,34.3,15.5,29.65,NE,45,4.7,4.7,46,0.00,,,0.10,LWC V2.10 B1813,2013-02-27 00:04:00,
2013-02-26 17:09:00,34.0,15.2,29.66,North,0,0.0,2.9,46,0.00,,,0.10,LWC V2.10 B1813,2013-02-27 00:09:00,
2013-02-26 17:14:00,33.8,15.0,29.66,NE,45,2.9,2.9,46,0.00,,,0.10,LWC V2.10 B1813,2013-02-27 00:14:00,
2013-02-26 17:19:00,33.6,15.4,29.66,NNE,22,3.1,3.1,46,0.00,,,0.10,LWC V2.10 B1813,2013-02-27 00:19:00,
2013-02-26 17:24:00,33.4,15.2,29.67,NNE,22,0.0,2.5,47,0.00,,,0.10,LWC V2.10 B1813,2013-02-27 00:24:00,
2013-02-26 17:29:00,33.3,14.6,29.66,NNE,22,6.3,6.3,46,0.00,,,0.10,LWC V2.10 B1813,2013-02-27 00:29:00,
2013-02-26 17:34:00,33.3,14.6,29.67,NNE,22,3.8,3.8,46,0.00,,,0.10,LWC V2.10 B1813,2013-02-27 00:34:00,
2013-02-26 17:39:00,32.9,14.7,29.67,NNE,22,3.1,4.0,47,0.00,,,0.10,LWC V2.10 B1813,2013-02-27 00:39:00,
2013-02-26 17:44:00,32.7,14.6,29.68,NNE,22,0.0,0.0,47,0.00,,,0.10,LWC V2.10 B1813,2013-02-27 00:44:00,
2013-02-26 17:49:00,32.7,14.6,29.68,NNE,22,0.0,3.1,47,0.00,,,0.10,LWC V2.10 B1813,2013-02-27 00:49:00,
2013-02-26 17:54:00,32.7,14.6,29.68,NNE,22,6.0,6.0,47,0.00,,,0.10,LWC V2.10 B1813,2013-02-27 00:54:00,
2013-02-26 17:59:00,32.5,14.4,29.68,NNE,22,6.5,6.5,47,0.00,,,0.10,LWC V2.10 B1813,2013-02-27 00:59:00,
2013-02-26 18:04:00,32.5,14.9,29.69,NNE,22,0.0,0.0,48,0.00,,,0.10,LWC V2.10 B1813,2013-02-27 01:04:00,
2013-02-26 18:09:00,32.2,14.1,29.69,NNE,22,0.0,0.0,47,0.00,,,0.10,LWC V2.10 B1813,2013-02-27 01:09:00,
2013-02-26 18:14:00,32.2,14.6,29.70,NNE,22,0.0,0.0,48,0.00,,,0.10,LWC V2.10 B1813,2013-02-27 01:14:00,
2013-02-26 18:19:00,32.2,14.6,29.70,NNE,22,0.0,0.0,48,0.00,,,0.10,LWC V2.10 B1813,2013-02-27 01:19:00,
2013-02-26 18:24:00,32.2,14.6,29.70,NNE,22,0.0,0.0,48,0.00,,,0.10,LWC V2.10 B1813,2013-02-27 01:24:00,
2013-02-26 18:29:00,32.0,14.4,29.71,NNE,22,0.0,0.0,48,0.00,,,0.10,LWC V2.10 B1813,2013-02-27 01:29:00,
2013-02-26 18:34:00,31.8,14.3,29.71,NNE,22,0.0,0.0,48,0.00,,,0.10,LWC V2.10 B1813,2013-02-27 01:34:00,
2013-02-26 18:39:00,31.8,14.3,29.71,NNE,22,0.0,0.0,48,0.00,,,0.10,LWC V2.10 B1813,2013-02-27 01:39:00,
2013-02-26 18:44:00,31.8,14.3,29.71,NNE,22,0.0,0.0,48,0.00,,,0.10,LWC V2.10 B1813,2013-02-27 01:44:00,
2013-02-26 18:49:00,31.8,14.3,29.71,NNE,22,0.0,0.0,48,0.00,,,0.10,LWC V2.10 B1813,2013-02-27 01:49:00,
2013-02-26 18:54:00,31.8,14.3,29.71,NNE,22,0.0,2.5,48,0.00,,,0.10,LWC V2.10 B1813,2013-02-27 01:54:00,
2013-02-26 18:59:00,31.8,14.3,29.71,NNE,22,0.0,0.0,48,0.00,,,0.10,LWC V2.10 B1813,2013-02-27 01:59:00,
2013-02-26 19:04:00,31.8,14.8,29.71,NNE,22,0.0,0.0,49,0.00,,,0.10,LWC V2.10 B1813,2013-02-27 02:04:00,
2013-02-26 19:09:00,31.8,14.8,29.71,NNE,22,0.0,0.0,49,0.00,,,0.10,LWC V2.10 B1813,2013-02-27 02:09:00,
2013-02-26 19:14:00,31.8,14.8,29.71,NNE,22,4.2,4.2,49,0.00,,,0.10,LWC V2.10 B1813,2013-02-27 02:14:00,
2013-02-26 19:19:00,32.0,13.4,29.72,NNE,22,3.1,3.4,46,0.00,,,0.10,LWC V2.10 B1813,2013-02-27 02:19:00,
2013-02-26 19:25:00,32.2,14.1,29.72,NNE,22,3.4,3.4,47,0.00,,,0.10,LWC V2.10 B1813,2013-02-27 02:25:00,
2013-02-26 19:30:00,32.2,13.6,29.72,NNE,22,0.0,0.0,46,0.00,,,0.10,LWC V2.10 B1813,2013-02-27 02:30:00,
2013-02-26 19:35:00,32.4,13.7,29.73,NNE,22,0.0,0.0,46,0.00,,,0.10,LWC V2.10 B1813,2013-02-27 02:35:00,
2013-02-26 19:40:00,32.2,13.6,29.73,NNE,22,0.0,0.0,46,0.00,,,0.10,LWC V2.10 B1813,2013-02-27 02:40:00,
2013-02-26 19:45:00,32.2,13.6,29.74,NNE,22,0.0,0.0,46,0.00,,,0.10,LWC V2.10 B1813,2013-02-27 02:45:00,
2013-02-26 19:50:00,32.2,13.6,29.74,NNE,22,4.5,4.5,46,0.00,,,0.10,LWC V2.10 B1813,2013-02-27 02:50:00,
2013-02-26 19:55:00,32.2,13.6,29.74,NNE,22,0.0,0.0,46,0.00,,,0.10,LWC V2.10 B1813,2013-02-27 02:55:00,
2013-02-26 20:00:00,32.2,13.6,29.74,NNE,22,0.0,0.0,46,0.00,,,0.10,LWC V2.10 B1813,2013-02-27 03:00:00,
2013-02-26 20:05:00,32.2,13.6,29.74,NNE,22,0.0,5.6,46,0.00,,,0.10,LWC V2.10 B1813,2013-02-27 03:05:00,
2013-02-26 20:10:00,32.2,13.1,29.74,NNE,22,0.0,0.0,45,0.00,,,0.10,LWC V2.10 B1813,2013-02-27 03:10:00,
2013-02-26 20:15:00,32.2,13.6,29.74,NNE,22,0.0,0.0,46,0.00,,,0.10,LWC V2.10 B1813,2013-02-27 03:15:00,
2013-02-26 20:20:00,32.2,13.6,29.75,NNE,22,3.1,3.1,46,0.00,,,0.10,LWC V2.10 B1813,2013-02-27 03:20:00,
2013-02-26 20:25:00,32.0,13.9,29.75,NNE,22,0.0,0.0,47,0.00,,,0.10,LWC V2.10 B1813,2013-02-27 03:25:00,
2013-02-26 20:30:00,31.8,13.8,29.76,NNE,22,0.0,0.0,47,0.00,,,0.10,LWC V2.10 B1813,2013-02-27 03:30:00,
2013-02-26 20:35:00,31.8,13.3,29.76,NNE,22,2.2,2.2,46,0.00,,,0.10,LWC V2.10 B1813,2013-02-27 03:35:00,
2013-02-26 20:40:00,31.8,13.3,29.76,NNE,22,0.0,0.0,46,0.00,,,0.10,LWC V2.10 B1813,2013-02-27 03:40:00,
2013-02-26 20:45:00,31.8,13.3,29.76,NNE,22,0.0,0.0,46,0.00,,,0.10,LWC V2.10 B1813,2013-02-27 03:45:00,
2013-02-26 20:50:00,31.8,13.3,29.76,NNE,22,0.0,0.0,46,0.00,,,0.10,LWC V2.10 B1813,2013-02-27 03:50:00,
2013-02-26 20:55:00,31.8,13.3,29.76,NNE,22,0.0,0.0,46,0.00,,,0.10,LWC V2.10 B1813,2013-02-27 03:55:00,
2013-02-26 21:00:00,31.8,13.3,29.76,NNE,22,0.0,0.0,46,0.00,,,0.10,LWC V2.10 B1813,2013-02-27 04:00:00,
2013-02-26 21:05:00,31.8,13.3,29.77,NNE,22,0.0,0.0,46,0.00,,,0.10,LWC V2.10 B1813,2013-02-27 04:05:00,
2013-02-26 21:10:00,31.8,13.3,29.77,NNE,22,0.0,0.0,46,0.00,,,0.10,LWC V2.10 B1813,2013-02-27 04:10:00,
2013-02-26 21:15:00,31.8,13.3,29.77,NNE,22,0.0,0.0,46,0.00,,,0.10,LWC V2.10 B1813,2013-02-27 04:15:00,
2013-02-26 21:20:00,31.8,13.3,29.77,NNE,22,0.0,0.0,46,0.00,,,0.10,LWC V2.10 B1813,2013-02-27 04:20:00,
2013-02-26 21:25:00,31.8,13.3,29.77,NNE,22,0.0,0.0,46,0.00,,,0.10,LWC V2.10 B1813,2013-02-27 04:25:00,
2013-02-26 21:30:00,31.8,12.8,29.77,NNE,22,0.0,0.0,45,0.00,,,0.10,LWC V2.10 B1813,2013-02-27 04:30:00,
2013-02-26 21:35:00,31.8,12.8,29.77,NNE,22,0.0,0.0,45,0.00,,,0.10,LWC V2.10 B1813,2013-02-27 04:35:00,
2013-02-26 21:40:00,31.8,12.8,29.77,NNE,22,0.0,0.0,45,0.00,,,0.10,LWC V2.10 B1813,2013-02-27 04:40:00,
2013-02-26 21:45:00,31.8,12.8,29.77,NNE,22,0.0,0.0,45,0.00,,,0.10,LWC V2.10 B1813,2013-02-27 04:45:00,
2013-02-26 21:50:00,31.6,12.6,29.77,NNE,22,0.0,0.0,45,0.00,,,0.10,LWC V2.10 B1813,2013-02-27 04:50:00,
2013-02-26 21:55:00,31.3,12.8,29.77,NNE,22,0.0,0.0,46,0.00,,,0.10,LWC V2.10 B1813,2013-02-27 04:55:00,
2013-02-26 22:00:00,31.3,12.8,29.78,NNE,22,0.0,0.0,46,0.00,,,0.10,LWC V2.10 B1813,2013-02-27 05:00:00,
2013-02-26 22:05:00,30.7,12.8,29.78,NNE,22,0.0,0.0,47,0.00,,,0.10,LWC V2.10 B1813,2013-02-27 05:05:00,
2013-02-26 22:07:00,30.4,12.5,29.78,NNE,22,0.0,0.0,47,0.00,,,0.10,LWC V2.10 B1813,2013-02-27 05:07:00,
2013-02-26 22:12:00,29.8,12.5,29.78,NNE,22,0.0,0.0,48,0.00,,,0.10,LWC V2.10 B1813,2013-02-27 05:12:00,
2013-02-26 22:17:00,28.9,12.7,29.79,NNE,22,0.0,0.0,50,0.00,,,0.10,LWC V2.10 B1813,2013-02-27 05:17:00,
2013-02-26 22:21:00,28.2,12.8,29.78,NNE,22,0.0,0.0,51,0.00,,,0.10,LWC V2.10 B1813,2013-02-27 05:21:00,
2013-02-26 22:26:00,28.0,13.1,29.78,NNE,22,0.0,0.0,53,0.00,,,0.10,LWC V2.10 B1813,2013-02-27 05:26:00,
2013-02-26 22:31:00,27.5,12.5,29.79,NNE,22,0.0,0.0,53,0.00,,,0.10,LWC V2.10 B1813,2013-02-27 05:31:00,
2013-02-26 22:36:00,27.0,12.4,29.79,NNE,22,0.0,0.0,54,0.00,,,0.10,LWC V2.10 B1813,2013-02-27 05:36:00,
2013-02-26 22:41:00,26.4,12.3,29.79,NNE,22,0.0,0.0,55,0.00,,,0.10,LWC V2.10 B1813,2013-02-27 05:41:00,
2013-02-26 22:46:00,26.1,12.0,29.79,NNE,22,0.0,0.0,55,0.00,,,0.10,LWC V2.10 B1813,2013-02-27 05:46:00,
2013-02-26 22:51:00,27.5,12.2,29.79,NNE,22,0.0,0.0,53,0.00,,,0.10,LWC V2.10 B1813,2013-02-27 05:51:00,
2013-02-26 22:56:00,27.7,12.7,29.79,NNE,22,0.0,0.0,53,0.00,,,0.10,LWC V2.10 B1813,2013-02-27 05:56:00,
2013-02-26 23:01:00,27.1,12.2,29.79,NNE,22,0.0,0.0,53,0.00,,,0.10,LWC V2.10 B1813,2013-02-27 06:01:00,
2013-02-26 23:06:00,26.2,12.1,29.80,NNE,22,0.0,0.0,54,0.00,,,0.10,LWC V2.10 B1813,2013-02-27 06:06:00,
2013-02-26 23:11:00,25.7,11.7,29.79,NNE,22,0.0,0.0,55,0.00,,,0.10,LWC V2.10 B1813,2013-02-27 06:11:00,
2013-02-26 23:16:00,25.5,11.9,29.80,NNE,22,0.0,0.0,56,0.00,,,0.10,LWC V2.10 B1813,2013-02-27 06:16:00,
2013-02-26 23:21:00,25.2,11.8,29.80,NNE,22,0.0,0.0,57,0.00,,,0.10,LWC V2.10 B1813,2013-02-27 06:21:00,
2013-02-26 23:26:00,24.6,11.5,29.80,NNE,22,1.6,1.6,57,0.00,,,0.10,LWC V2.10 B1813,2013-02-27 06:26:00,
2013-02-26 23:31:00,24.3,11.6,29.80,NNE,22,0.0,0.0,58,0.00,,,0.10,LWC V2.10 B1813,2013-02-27 06:31:00,
2013-02-26 23:36:00,24.1,11.6,29.81,NNE,22,0.0,0.0,59,0.00,,,0.10,LWC V2.10 B1813,2013-02-27 06:36:00,
2013-02-26 23:41:00,23.7,11.4,29.81,NNE,22,0.0,0.0,59,0.00,,,0.10,LWC V2.10 B1813,2013-02-27 06:41:00,
2013-02-26 23:46:00,23.5,11.7,29.81,NNE,22,0.0,0.0,60,0.00,,,0.10,LWC V2.10 B1813,2013-02-27 06:46:00,
2013-02-26 23:51:00,23.5,11.7,29.81,NNE,22,0.0,0.0,60,0.00,,,0.10,LWC V2.10 B1813,2013-02-27 06:51:00,
2013-02-26 23:56:00,23.2,11.3,29.81,NNE,22,0.0,0.0,60,0.00,,,0.10,LWC V2.10 B1813,2013-02-27 06:56:00,